sensor_id;sensor_type;location;lat;lon;timestamp;pressure;altitude;pressure_sealevel;temperature;humidity
7480;BME280;3781;42.272;22.658;2023-02-10T00:00:20;96300.78;;;-6.40;94.61
7480;BME280;3781;42.272;22.658;2023-02-10T00:02:46;96295.69;;;-6.46;95.15
7480;BME280;3781;42.272;22.658;2023-02-10T00:05:13;96283.91;;;-6.47;96.58
7480;BME280;3781;42.272;22.658;2023-02-10T00:07:40;96284.69;;;-6.55;95.17
7480;BME280;3781;42.272;22.658;2023-02-10T00:10:08;96283.81;;;-6.59;96.65
7480;BME280;3781;42.272;22.658;2023-02-10T00:12:35;96281.31;;;-6.54;99.80
7480;BME280;3781;42.272;22.658;2023-02-10T00:15:03;96272.06;;;-6.57;99.47
7480;BME280;3781;42.272;22.658;2023-02-10T00:17:30;96277.13;;;-6.57;100.00
7480;BME280;3781;42.272;22.658;2023-02-10T00:19:57;96283.03;;;-6.55;100.00
7480;BME280;3781;42.272;22.658;2023-02-10T00:22:24;96285.44;;;-6.73;100.00
7480;BME280;3781;42.272;22.658;2023-02-10T00:24:51;96260.84;;;-7.07;100.00
7480;BME280;3781;42.272;22.658;2023-02-10T00:27:19;96255.75;;;-7.10;97.43
7480;BME280;3781;42.272;22.658;2023-02-10T00:29:49;96290.03;;;-7.39;100.00
7480;BME280;3781;42.272;22.658;2023-02-10T00:32:16;96285.13;;;-7.24;100.00
7480;BME280;3781;42.272;22.658;2023-02-10T00:34:44;96287.13;;;-6.72;99.66
7480;BME280;3781;42.272;22.658;2023-02-10T00:37:10;96250.06;;;-6.79;95.40
7480;BME280;3781;42.272;22.658;2023-02-10T00:39:37;96286.47;;;-6.35;92.17
7480;BME280;3781;42.272;22.658;2023-02-10T00:42:04;96279.75;;;-6.31;90.18
7480;BME280;3781;42.272;22.658;2023-02-10T00:44:32;96283.91;;;-6.47;94.71
7480;BME280;3781;42.272;22.658;2023-02-10T00:46:59;96283.91;;;-6.44;97.21
7480;BME280;3781;42.272;22.658;2023-02-10T00:49:25;96265.31;;;-6.58;98.95
7480;BME280;3781;42.272;22.658;2023-02-10T00:51:52;96282.16;;;-6.54;99.57
7480;BME280;3781;42.272;22.658;2023-02-10T00:54:19;96285.50;;;-6.62;99.40
7480;BME280;3781;42.272;22.658;2023-02-10T00:56:46;96265.19;;;-6.82;100.00
7480;BME280;3781;42.272;22.658;2023-02-10T00:59:13;96290.56;;;-6.64;100.00
7480;BME280;3781;42.272;22.658;2023-02-10T01:01:42;96277.00;;;-6.81;100.00
7480;BME280;3781;42.272;22.658;2023-02-10T01:04:09;96281.84;;;-7.08;98.42
7480;BME280;3781;42.272;22.658;2023-02-10T01:06:35;96284.03;;;-7.55;100.00
7480;BME280;3781;42.272;22.658;2023-02-10T01:09:02;96281.53;;;-7.53;100.00
7480;BME280;3781;42.272;22.658;2023-02-10T01:11:29;96277.38;;;-7.45;100.00
7480;BME280;3781;42.272;22.658;2023-02-10T01:13:56;96252.97;;;-7.49;100.00
7480;BME280;3781;42.272;22.658;2023-02-10T01:16:23;96203.28;;;-7.59;100.00
7480;BME280;3781;42.272;22.658;2023-02-10T01:18:51;96275.09;;;-7.12;100.00
7480;BME280;3781;42.272;22.658;2023-02-10T01:21:19;96275.06;;;-7.18;100.00
7480;BME280;3781;42.272;22.658;2023-02-10T01:23:47;96278.41;;;-7.22;100.00
7480;BME280;3781;42.272;22.658;2023-02-10T01:26:14;96275.00;;;-7.27;100.00
7480;BME280;3781;42.272;22.658;2023-02-10T01:28:41;96272.38;;;-7.42;100.00
7480;BME280;3781;42.272;22.658;2023-02-10T01:31:10;96260.56;;;-7.45;100.00
7480;BME280;3781;42.272;22.658;2023-02-10T01:33:37;96272.53;;;-7.18;100.00
7480;BME280;3781;42.272;22.658;2023-02-10T01:36:08;96270.13;;;-7.00;100.00
7480;BME280;3781;42.272;22.658;2023-02-10T01:38:35;96271.88;;;-6.90;100.00
7480;BME280;3781;42.272;22.658;2023-02-10T01:41:02;96244.94;;;-6.91;96.83
7480;BME280;3781;42.272;22.658;2023-02-10T01:43:29;96259.34;;;-6.75;95.27
7480;BME280;3781;42.272;22.658;2023-02-10T01:45:56;96266.47;;;-7.41;97.70
7480;BME280;3781;42.272;22.658;2023-02-10T01:48:24;96261.41;;;-7.44;100.00
7480;BME280;3781;42.272;22.658;2023-02-10T01:50:52;96256.28;;;-7.53;100.00
7480;BME280;3781;42.272;22.658;2023-02-10T01:53:22;96245.97;;;-7.81;100.00
7480;BME280;3781;42.272;22.658;2023-02-10T01:55:51;96239.28;;;-7.76;100.00
7480;BME280;3781;42.272;22.658;2023-02-10T01:58:21;96245.91;;;-7.88;100.00
7480;BME280;3781;42.272;22.658;2023-02-10T02:00:49;96251.91;;;-7.77;100.00
7480;BME280;3781;42.272;22.658;2023-02-10T02:03:16;96240.97;;;-7.78;100.00
7480;BME280;3781;42.272;22.658;2023-02-10T02:05:43;96241.22;;;-7.41;100.00
7480;BME280;3781;42.272;22.658;2023-02-10T02:08:14;96249.72;;;-7.33;100.00
7480;BME280;3781;42.272;22.658;2023-02-10T02:10:55;96229.31;;;-7.60;100.00
7480;BME280;3781;42.272;22.658;2023-02-10T02:13:45;96243.56;;;-7.70;100.00
7480;BME280;3781;42.272;22.658;2023-02-10T02:16:25;96248.25;;;-8.08;100.00
7480;BME280;3781;42.272;22.658;2023-02-10T02:18:57;96242.44;;;-7.98;100.00
7480;BME280;3781;42.272;22.658;2023-02-10T02:24:57;96225.78;;;-7.81;100.00
7480;BME280;3781;42.272;22.658;2023-02-10T02:31:06;96229.00;;;-8.00;100.00
7480;BME280;3781;42.272;22.658;2023-02-10T02:33:43;96225.28;;;-8.38;100.00
7480;BME280;3781;42.272;22.658;2023-02-10T02:36:17;96237.16;;;-8.28;100.00
7480;BME280;3781;42.272;22.658;2023-02-10T02:38:44;96232.97;;;-8.26;100.00
7480;BME280;3781;42.272;22.658;2023-02-10T02:41:11;96238.94;;;-8.15;100.00
7480;BME280;3781;42.272;22.658;2023-02-10T02:43:39;96198.47;;;-8.33;100.00
7480;BME280;3781;42.272;22.658;2023-02-10T02:46:11;96243.25;;;-8.05;100.00
7480;BME280;3781;42.272;22.658;2023-02-10T02:48:54;96208.63;;;-8.27;100.00
7480;BME280;3781;42.272;22.658;2023-02-10T02:51:30;96251.72;;;-7.98;100.00
7480;BME280;3781;42.272;22.658;2023-02-10T02:54:03;96242.53;;;-7.89;100.00
7480;BME280;3781;42.272;22.658;2023-02-10T02:56:39;96223.03;;;-8.09;100.00
7480;BME280;3781;42.272;22.658;2023-02-10T02:59:11;96240.78;;;-7.96;100.00
7480;BME280;3781;42.272;22.658;2023-02-10T03:01:45;96246.53;;;-8.09;100.00
7480;BME280;3781;42.272;22.658;2023-02-10T03:04:15;96239.88;;;-8.02;100.00
7480;BME280;3781;42.272;22.658;2023-02-10T03:06:42;96240.78;;;-7.99;100.00
7480;BME280;3781;42.272;22.658;2023-02-10T03:09:09;96242.50;;;-7.95;100.00
7480;BME280;3781;42.272;22.658;2023-02-10T03:11:37;96254.19;;;-8.03;100.00
7480;BME280;3781;42.272;22.658;2023-02-10T03:14:03;96241.41;;;-8.19;100.00
7480;BME280;3781;42.272;22.658;2023-02-10T03:16:30;96189.88;;;-8.50;100.00
7480;BME280;3781;42.272;22.658;2023-02-10T03:18:57;96237.09;;;-8.32;100.00
7480;BME280;3781;42.272;22.658;2023-02-10T03:21:25;96243.03;;;-8.29;100.00
7480;BME280;3781;42.272;22.658;2023-02-10T03:23:52;96240.53;;;-8.26;100.00
7480;BME280;3781;42.272;22.658;2023-02-10T03:26:19;96240.53;;;-8.27;100.00
7480;BME280;3781;42.272;22.658;2023-02-10T03:28:45;96235.41;;;-8.33;100.00
7480;BME280;3781;42.272;22.658;2023-02-10T03:31:12;96232.00;;;-8.37;100.00
7480;BME280;3781;42.272;22.658;2023-02-10T03:33:39;96235.31;;;-8.44;100.00
7480;BME280;3781;42.272;22.658;2023-02-10T03:36:06;96223.53;;;-8.45;100.00
7480;BME280;3781;42.272;22.658;2023-02-10T03:38:35;96225.41;;;-8.29;100.00
7480;BME280;3781;42.272;22.658;2023-02-10T03:41:02;96207.66;;;-8.36;100.00
7480;BME280;3781;42.272;22.658;2023-02-10T03:43:29;96225.41;;;-8.23;100.00
7480;BME280;3781;42.272;22.658;2023-02-10T03:45:59;96221.28;;;-8.16;100.00
7480;BME280;3781;42.272;22.658;2023-02-10T03:48:26;96215.53;;;-8.02;100.00
7480;BME280;3781;42.272;22.658;2023-02-10T03:50:56;96220.56;;;-8.05;100.00
7480;BME280;3781;42.272;22.658;2023-02-10T03:53:23;96213.72;;;-8.15;100.00
7480;BME280;3781;42.272;22.658;2023-02-10T03:55:51;96216.13;;;-8.33;100.00
7480;BME280;3781;42.272;22.658;2023-02-10T03:58:18;96202.72;;;-8.26;100.00
7480;BME280;3781;42.272;22.658;2023-02-10T04:00:45;96198.50;;;-8.24;100.00
7480;BME280;3781;42.272;22.658;2023-02-10T04:03:12;96203.59;;;-8.21;100.00
7480;BME280;3781;42.272;22.658;2023-02-10T04:05:39;96200.19;;;-8.29;100.00
7480;BME280;3781;42.272;22.658;2023-02-10T04:08:06;96196.03;;;-8.22;100.00
7480;BME280;3781;42.272;22.658;2023-02-10T04:10:33;96193.50;;;-8.27;100.00
7480;BME280;3781;42.272;22.658;2023-02-10T04:13:01;96203.44;;;-8.39;100.00
7480;BME280;3781;42.272;22.658;2023-02-10T04:15:28;96207.56;;;-8.49;100.00
7480;BME280;3781;42.272;22.658;2023-02-10T04:17:55;96202.41;;;-8.56;100.00
7480;BME280;3781;42.272;22.658;2023-02-10T04:20:22;96202.38;;;-8.61;100.00
7480;BME280;3781;42.272;22.658;2023-02-10T04:22:49;96197.22;;;-8.71;100.00
7480;BME280;3781;42.272;22.658;2023-02-10T04:25:16;96199.78;;;-8.68;100.00
7480;BME280;3781;42.272;22.658;2023-02-10T04:27:43;96200.66;;;-8.65;100.00
7480;BME280;3781;42.272;22.658;2023-02-10T04:30:12;96193.03;;;-8.72;100.00
7480;BME280;3781;42.272;22.658;2023-02-10T04:32:38;96204.66;;;-8.80;100.00
7480;BME280;3781;42.272;22.658;2023-02-10T04:35:06;96200.34;;;-8.90;100.00
7480;BME280;3781;42.272;22.658;2023-02-10T04:37:32;96197.84;;;-8.90;100.00
7480;BME280;3781;42.272;22.658;2023-02-10T04:39:59;96194.56;;;-8.83;100.00
7480;BME280;3781;42.272;22.658;2023-02-10T04:42:26;96199.50;;;-8.89;100.00
7480;BME280;3781;42.272;22.658;2023-02-10T04:44:56;96206.19;;;-8.91;100.00
7480;BME280;3781;42.272;22.658;2023-02-10T04:47:25;96202.91;;;-8.87;100.00
7480;BME280;3781;42.272;22.658;2023-02-10T04:49:53;96201.28;;;-8.82;100.00
7480;BME280;3781;42.272;22.658;2023-02-10T04:52:20;96194.47;;;-8.92;100.00
7480;BME280;3781;42.272;22.658;2023-02-10T04:54:47;96221.28;;;-8.94;100.00
7480;BME280;3781;42.272;22.658;2023-02-10T04:57:13;96214.59;;;-8.92;100.00
7480;BME280;3781;42.272;22.658;2023-02-10T04:59:40;96216.84;;;-9.12;100.00
7480;BME280;3781;42.272;22.658;2023-02-10T05:02:07;96220.78;;;-9.31;100.00
7480;BME280;3781;42.272;22.658;2023-02-10T05:04:35;96222.25;;;-9.45;100.00
7480;BME280;3781;42.272;22.658;2023-02-10T05:07:02;96235.66;;;-9.46;100.00
7480;BME280;3781;42.272;22.658;2023-02-10T05:09:29;96242.28;;;-9.51;100.00
7480;BME280;3781;42.272;22.658;2023-02-10T05:11:55;96236.50;;;-9.47;100.00
7480;BME280;3781;42.272;22.658;2023-02-10T05:14:22;96242.22;;;-9.55;100.00
7480;BME280;3781;42.272;22.658;2023-02-10T05:16:49;96242.19;;;-9.57;100.00
7480;BME280;3781;42.272;22.658;2023-02-10T05:19:16;96242.94;;;-9.64;100.00
7480;BME280;3781;42.272;22.658;2023-02-10T05:21:44;96245.31;;;-9.70;100.00
7480;BME280;3781;42.272;22.658;2023-02-10T05:24:11;96238.47;;;-9.80;100.00
7480;BME280;3781;42.272;22.658;2023-02-10T05:26:37;96248.59;;;-9.77;100.00
7480;BME280;3781;42.272;22.658;2023-02-10T05:29:04;96253.63;;;-9.77;100.00
7480;BME280;3781;42.272;22.658;2023-02-10T05:31:31;96252.06;;;-9.69;100.00
7480;BME280;3781;42.272;22.658;2023-02-10T05:33:58;96254.78;;;-9.55;100.00
7480;BME280;3781;42.272;22.658;2023-02-10T05:36:25;96258.91;;;-9.59;100.00
7480;BME280;3781;42.272;22.658;2023-02-10T05:38:53;96243.56;;;-9.77;100.00
7480;BME280;3781;42.272;22.658;2023-02-10T05:41:37;96267.53;;;-9.45;100.00
7480;BME280;3781;42.272;22.658;2023-02-10T05:44:04;96271.06;;;-9.31;100.00
7480;BME280;3781;42.272;22.658;2023-02-10T05:46:30;96276.94;;;-9.32;100.00
7480;BME280;3781;42.272;22.658;2023-02-10T05:48:57;96278.75;;;-9.22;100.00
7480;BME280;3781;42.272;22.658;2023-02-10T05:51:24;96276.31;;;-9.18;100.00
7480;BME280;3781;42.272;22.658;2023-02-10T05:53:51;96286.34;;;-9.20;100.00
7480;BME280;3781;42.272;22.658;2023-02-10T05:56:20;96293.28;;;-9.05;100.00
7480;BME280;3781;42.272;22.658;2023-02-10T05:58:47;96288.25;;;-9.02;100.00
7480;BME280;3781;42.272;22.658;2023-02-10T06:01:14;96300.91;;;-8.99;100.00
7480;BME280;3781;42.272;22.658;2023-02-10T06:03:41;96299.97;;;-9.04;100.00
7480;BME280;3781;42.272;22.658;2023-02-10T06:06:08;96301.59;;;-9.09;100.00
7480;BME280;3781;42.272;22.658;2023-02-10T06:08:34;96306.63;;;-9.09;100.00
7480;BME280;3781;42.272;22.658;2023-02-10T06:11:01;96290.03;;;-8.95;100.00
7480;BME280;3781;42.272;22.658;2023-02-10T06:13:29;96310.94;;;-8.38;100.00
7480;BME280;3781;42.272;22.658;2023-02-10T06:15:56;96299.84;;;-7.73;100.00
7480;BME280;3781;42.272;22.658;2023-02-10T06:18:23;96300.44;;;-6.97;100.00
7480;BME280;3781;42.272;22.658;2023-02-10T06:20:49;96255.22;;;-6.55;98.42
7480;BME280;3781;42.272;22.658;2023-02-10T06:23:17;96266.38;;;-5.85;94.96
7480;BME280;3781;42.272;22.658;2023-02-10T06:25:45;96272.25;;;-4.85;88.46
7480;BME280;3781;42.272;22.658;2023-02-10T06:28:11;96309.13;;;-3.93;79.64
7480;BME280;3781;42.272;22.658;2023-02-10T06:30:41;96300.56;;;-3.71;76.99
7480;BME280;3781;42.272;22.658;2023-02-10T06:33:07;96299.66;;;-3.62;74.66
7480;BME280;3781;42.272;22.658;2023-02-10T06:35:34;96315.50;;;-3.26;73.46
7480;BME280;3781;42.272;22.658;2023-02-10T06:38:01;96310.56;;;-3.47;69.61
7480;BME280;3781;42.272;22.658;2023-02-10T06:40:27;96308.31;;;-2.75;70.21
7480;BME280;3781;42.272;22.658;2023-02-10T06:42:54;96319.25;;;-2.67;67.19
7480;BME280;3781;42.272;22.658;2023-02-10T06:45:21;96301.50;;;-2.73;66.06
7480;BME280;3781;42.272;22.658;2023-02-10T06:47:49;96317.31;;;-2.43;65.64
7480;BME280;3781;42.272;22.658;2023-02-10T06:50:16;96315.13;;;-2.00;64.73
7480;BME280;3781;42.272;22.658;2023-02-10T06:52:43;96310.31;;;-1.56;63.54
7480;BME280;3781;42.272;22.658;2023-02-10T06:55:09;96314.47;;;-0.92;62.82
7480;BME280;3781;42.272;22.658;2023-02-10T06:57:36;96319.66;;;-0.97;60.25
7480;BME280;3781;42.272;22.658;2023-02-10T07:00:03;96317.81;;;-0.38;59.18
7480;BME280;3781;42.272;22.658;2023-02-10T07:02:32;96320.91;;;-0.70;59.36
7480;BME280;3781;42.272;22.658;2023-02-10T07:05:01;96315.56;;;-0.09;56.27
7480;BME280;3781;42.272;22.658;2023-02-10T07:07:30;96306.22;;;0.31;55.37
7480;BME280;3781;42.272;22.658;2023-02-10T07:09:56;96313.56;;;0.48;53.83
7480;BME280;3781;42.272;22.658;2023-02-10T07:12:23;96318.66;;;0.48;53.78
7480;BME280;3781;42.272;22.658;2023-02-10T07:14:50;96325.22;;;0.59;53.76
7480;BME280;3781;42.272;22.658;2023-02-10T07:17:17;96323.47;;;0.22;54.40
7480;BME280;3781;42.272;22.658;2023-02-10T07:19:44;96326.84;;;0.24;53.64
7480;BME280;3781;42.272;22.658;2023-02-10T07:22:12;96325.50;;;0.46;54.79
7480;BME280;3781;42.272;22.658;2023-02-10T07:24:38;96326.03;;;0.98;53.13
7480;BME280;3781;42.272;22.658;2023-02-10T07:27:05;96332.19;;;-0.33;54.91
7480;BME280;3781;42.272;22.658;2023-02-10T07:29:32;96325.09;;;-0.19;57.29
7480;BME280;3781;42.272;22.658;2023-02-10T07:31:59;96327.75;;;0.20;54.88
7480;BME280;3781;42.272;22.658;2023-02-10T07:34:26;96339.72;;;1.32;51.67
7480;BME280;3781;42.272;22.658;2023-02-10T07:36:54;96315.59;;;1.75;49.70
7480;BME280;3781;42.272;22.658;2023-02-10T07:39:23;96328.97;;;1.86;51.02
7480;BME280;3781;42.272;22.658;2023-02-10T07:41:50;96329.94;;;1.82;50.03
7480;BME280;3781;42.272;22.658;2023-02-10T07:44:18;96320.88;;;1.35;51.22
7480;BME280;3781;42.272;22.658;2023-02-10T07:46:46;96320.88;;;1.69;50.36
7480;BME280;3781;42.272;22.658;2023-02-10T07:49:12;96324.00;;;1.80;50.28
7480;BME280;3781;42.272;22.658;2023-02-10T07:51:39;96325.88;;;2.36;48.46
7480;BME280;3781;42.272;22.658;2023-02-10T07:54:07;96320.63;;;2.41;48.43
7480;BME280;3781;42.272;22.658;2023-02-10T07:56:36;96307.16;;;2.62;47.09
7480;BME280;3781;42.272;22.658;2023-02-10T07:59:03;96325.91;;;2.91;46.71
7480;BME280;3781;42.272;22.658;2023-02-10T08:01:30;96329.38;;;3.18;45.51
7480;BME280;3781;42.272;22.658;2023-02-10T08:03:57;96329.81;;;3.57;44.88
7480;BME280;3781;42.272;22.658;2023-02-10T08:06:25;96312.16;;;3.48;44.21
7480;BME280;3781;42.272;22.658;2023-02-10T08:08:52;96325.03;;;3.97;44.95
7480;BME280;3781;42.272;22.658;2023-02-10T08:11:19;96312.75;;;4.05;44.03
7480;BME280;3781;42.272;22.658;2023-02-10T08:13:47;96320.31;;;4.79;42.83
7480;BME280;3781;42.272;22.658;2023-02-10T08:16:14;96334.28;;;4.72;43.13
7480;BME280;3781;42.272;22.658;2023-02-10T08:18:41;96305.22;;;3.76;43.29
7480;BME280;3781;42.272;22.658;2023-02-10T08:21:08;96324.00;;;4.26;43.76
7480;BME280;3781;42.272;22.658;2023-02-10T08:23:35;96300.75;;;4.97;41.33
7480;BME280;3781;42.272;22.658;2023-02-10T08:26:04;96313.16;;;5.51;40.25
7480;BME280;3781;42.272;22.658;2023-02-10T08:28:31;96322.19;;;5.82;40.73
7480;BME280;3781;42.272;22.658;2023-02-10T08:31:00;96308.97;;;6.30;39.41
7480;BME280;3781;42.272;22.658;2023-02-10T08:33:27;96297.03;;;6.28;39.46
7480;BME280;3781;42.272;22.658;2023-02-10T08:35:54;96318.44;;;6.30;38.32
7480;BME280;3781;42.272;22.658;2023-02-10T08:38:21;96320.66;;;6.37;38.47
7480;BME280;3781;42.272;22.658;2023-02-10T08:40:54;96316.13;;;7.00;38.12
7480;BME280;3781;42.272;22.658;2023-02-10T08:43:21;96315.53;;;6.56;37.62
7480;BME280;3781;42.272;22.658;2023-02-10T08:45:48;96300.34;;;6.50;37.51
7480;BME280;3781;42.272;22.658;2023-02-10T08:48:17;96314.09;;;5.28;39.13
7480;BME280;3781;42.272;22.658;2023-02-10T08:50:44;96290.06;;;4.39;41.21
7480;BME280;3781;42.272;22.658;2023-02-10T08:53:11;96301.41;;;5.65;39.91
7480;BME280;3781;42.272;22.658;2023-02-10T08:55:38;96306.56;;;6.26;39.66
7480;BME280;3781;42.272;22.658;2023-02-10T08:58:05;96305.66;;;6.84;38.02
7480;BME280;3781;42.272;22.658;2023-02-10T09:00:32;96301.91;;;5.95;39.55
7480;BME280;3781;42.272;22.658;2023-02-10T09:02:59;96302.88;;;5.29;40.26
7480;BME280;3781;42.272;22.658;2023-02-10T09:05:27;96302.22;;;4.81;40.48
7480;BME280;3781;42.272;22.658;2023-02-10T09:07:54;96297.88;;;5.46;39.98
7480;BME280;3781;42.272;22.658;2023-02-10T09:10:21;96300.25;;;6.33;39.02
7480;BME280;3781;42.272;22.658;2023-02-10T09:12:48;96298.31;;;7.29;37.07
7480;BME280;3781;42.272;22.658;2023-02-10T09:15:14;96299.63;;;8.23;35.90
7480;BME280;3781;42.272;22.658;2023-02-10T09:17:41;96289.41;;;8.70;35.25
7480;BME280;3781;42.272;22.658;2023-02-10T09:20:09;96292.22;;;8.50;35.07
7480;BME280;3781;42.272;22.658;2023-02-10T09:22:38;96303.13;;;9.03;33.80
7480;BME280;3781;42.272;22.658;2023-02-10T09:25:05;96298.59;;;8.10;34.73
7480;BME280;3781;42.272;22.658;2023-02-10T09:27:32;96282.22;;;8.10;34.37
7480;BME280;3781;42.272;22.658;2023-02-10T09:29:58;96286.59;;;8.42;33.50
7480;BME280;3781;42.272;22.658;2023-02-10T09:32:26;96268.41;;;8.44;32.94
7480;BME280;3781;42.272;22.658;2023-02-10T09:34:52;96283.63;;;9.73;31.55
7480;BME280;3781;42.272;22.658;2023-02-10T09:37:19;96277.81;;;11.24;29.90
7480;BME280;3781;42.272;22.658;2023-02-10T09:39:48;96273.53;;;10.97;28.85
7480;BME280;3781;42.272;22.658;2023-02-10T09:42:22;96283.41;;;12.49;28.10
7480;BME280;3781;42.272;22.658;2023-02-10T09:44:56;96259.47;;;11.40;28.91
7480;BME280;3781;42.272;22.658;2023-02-10T09:47:34;96272.00;;;8.72;32.20
7480;BME280;3781;42.272;22.658;2023-02-10T09:50:20;96242.88;;;8.84;32.00
7480;BME280;3781;42.272;22.658;2023-02-10T09:53:04;96259.53;;;9.71;31.38
7480;BME280;3781;42.272;22.658;2023-02-10T09:55:39;96246.34;;;9.15;32.22
7480;BME280;3781;42.272;22.658;2023-02-10T09:58:15;96253.44;;;9.27;32.26
7480;BME280;3781;42.272;22.658;2023-02-10T10:00:45;96251.88;;;10.27;30.49
7480;BME280;3781;42.272;22.658;2023-02-10T10:03:15;96228.38;;;11.90;28.79
7480;BME280;3781;42.272;22.658;2023-02-10T10:05:49;96243.53;;;11.32;28.41
7480;BME280;3781;42.272;22.658;2023-02-10T10:08:24;96229.97;;;10.31;30.76
7480;BME280;3781;42.272;22.658;2023-02-10T10:10:56;96234.03;;;11.31;29.65
7480;BME280;3781;42.272;22.658;2023-02-10T10:13:28;96223.03;;;13.16;26.63
7480;BME280;3781;42.272;22.658;2023-02-10T10:16:38;96224.63;;;11.43;28.42
7480;BME280;3781;42.272;22.658;2023-02-10T10:19:15;96223.53;;;13.21;26.94
7480;BME280;3781;42.272;22.658;2023-02-10T10:21:51;96216.94;;;10.03;29.75
7480;BME280;3781;42.272;22.658;2023-02-10T10:24:35;96206.44;;;9.33;30.81
7480;BME280;3781;42.272;22.658;2023-02-10T10:27:19;96208.59;;;10.83;29.32
7480;BME280;3781;42.272;22.658;2023-02-10T10:29:51;96195.13;;;10.21;29.28
7480;BME280;3781;42.272;22.658;2023-02-10T10:32:28;96196.06;;;9.33;31.27
7480;BME280;3781;42.272;22.658;2023-02-10T10:35:00;96176.25;;;9.89;29.37
7480;BME280;3781;42.272;22.658;2023-02-10T10:37:28;96192.78;;;12.03;26.99
7480;BME280;3781;42.272;22.658;2023-02-10T10:39:57;96182.41;;;12.88;26.24
7480;BME280;3781;42.272;22.658;2023-02-10T10:42:40;96180.84;;;12.86;25.99
7480;BME280;3781;42.272;22.658;2023-02-10T10:45:13;96171.78;;;12.79;26.06
7480;BME280;3781;42.272;22.658;2023-02-10T10:47:45;96153.22;;;12.83;25.48
7480;BME280;3781;42.272;22.658;2023-02-10T10:50:14;96160.81;;;10.71;27.43
7480;BME280;3781;42.272;22.658;2023-02-10T10:52:43;96173.09;;;11.35;27.49
7480;BME280;3781;42.272;22.658;2023-02-10T10:55:15;96135.91;;;11.97;25.76
7480;BME280;3781;42.272;22.658;2023-02-10T10:57:44;96182.75;;;12.23;25.87
7480;BME280;3781;42.272;22.658;2023-02-10T11:00:19;96143.34;;;10.32;27.28
7480;BME280;3781;42.272;22.658;2023-02-10T11:02:55;96158.94;;;10.73;27.50
7480;BME280;3781;42.272;22.658;2023-02-10T11:05:27;96158.25;;;11.10;27.10
7480;BME280;3781;42.272;22.658;2023-02-10T11:07:55;96151.38;;;12.73;25.92
7480;BME280;3781;42.272;22.658;2023-02-10T11:10:25;96144.72;;;13.86;24.67
7480;BME280;3781;42.272;22.658;2023-02-10T11:12:54;96130.63;;;14.66;23.85
7480;BME280;3781;42.272;22.658;2023-02-10T11:15:33;96136.94;;;14.63;25.37
7480;BME280;3781;42.272;22.658;2023-02-10T11:18:01;96136.31;;;15.14;23.21
7480;BME280;3781;42.272;22.658;2023-02-10T11:20:31;96133.38;;;15.07;23.84
7480;BME280;3781;42.272;22.658;2023-02-10T11:23:01;96138.81;;;15.47;23.21
7480;BME280;3781;42.272;22.658;2023-02-10T11:25:30;96128.97;;;14.43;23.59
7480;BME280;3781;42.272;22.658;2023-02-10T11:28:00;96119.78;;;13.82;24.12
7480;BME280;3781;42.272;22.658;2023-02-10T11:30:29;96131.31;;;13.90;24.66
7480;BME280;3781;42.272;22.658;2023-02-10T11:32:57;96127.66;;;13.12;24.43
7480;BME280;3781;42.272;22.658;2023-02-10T11:35:25;96120.88;;;10.99;26.59
7480;BME280;3781;42.272;22.658;2023-02-10T11:37:53;96109.41;;;11.53;26.47
7480;BME280;3781;42.272;22.658;2023-02-10T11:40:23;96105.63;;;13.16;24.95
7480;BME280;3781;42.272;22.658;2023-02-10T11:42:52;96118.19;;;15.22;23.32
7480;BME280;3781;42.272;22.658;2023-02-10T11:45:23;96101.88;;;16.21;21.65
7480;BME280;3781;42.272;22.658;2023-02-10T11:47:59;96100.13;;;16.71;21.70
7480;BME280;3781;42.272;22.658;2023-02-10T11:50:29;96096.13;;;15.97;21.53
7480;BME280;3781;42.272;22.658;2023-02-10T11:52:57;96101.13;;;16.99;21.18
7480;BME280;3781;42.272;22.658;2023-02-10T11:55:32;96106.22;;;16.72;21.60
7480;BME280;3781;42.272;22.658;2023-02-10T11:58:16;96071.59;;;13.64;23.12
7480;BME280;3781;42.272;22.658;2023-02-10T12:01:09;96068.22;;;13.39;23.57
7480;BME280;3781;42.272;22.658;2023-02-10T12:03:52;96084.56;;;13.87;22.87
7480;BME280;3781;42.272;22.658;2023-02-10T12:06:25;96077.00;;;13.38;23.79
7480;BME280;3781;42.272;22.658;2023-02-10T12:09:00;96097.03;;;12.56;24.33
7480;BME280;3781;42.272;22.658;2023-02-10T12:11:37;96089.63;;;13.67;24.23
7480;BME280;3781;42.272;22.658;2023-02-10T12:14:28;96085.63;;;14.07;23.77
7480;BME280;3781;42.272;22.658;2023-02-10T12:17:11;96083.00;;;12.93;23.92
7480;BME280;3781;42.272;22.658;2023-02-10T12:19:46;96069.88;;;13.40;24.22
7480;BME280;3781;42.272;22.658;2023-02-10T12:22:21;96065.41;;;13.53;23.51
7480;BME280;3781;42.272;22.658;2023-02-10T12:25:09;96062.47;;;14.78;22.78
7480;BME280;3781;42.272;22.658;2023-02-10T12:27:51;96055.16;;;14.61;23.05
7480;BME280;3781;42.272;22.658;2023-02-10T12:30:31;96045.78;;;14.90;22.93
7480;BME280;3781;42.272;22.658;2023-02-10T12:33:16;96055.19;;;14.82;22.54
7480;BME280;3781;42.272;22.658;2023-02-10T12:35:50;96053.31;;;14.41;23.01
7480;BME280;3781;42.272;22.658;2023-02-10T12:38:29;96056.88;;;14.83;22.47
7480;BME280;3781;42.272;22.658;2023-02-10T12:41:08;96052.59;;;15.14;22.97
7480;BME280;3781;42.272;22.658;2023-02-10T12:43:58;96047.63;;;13.58;23.55
7480;BME280;3781;42.272;22.658;2023-02-10T12:46:32;96046.91;;;14.01;23.96
7480;BME280;3781;42.272;22.658;2023-02-10T12:49:15;96034.56;;;12.78;25.01
7480;BME280;3781;42.272;22.658;2023-02-10T12:51:56;96046.59;;;12.92;24.79
7480;BME280;3781;42.272;22.658;2023-02-10T12:54:26;96037.97;;;15.11;23.01
7480;BME280;3781;42.272;22.658;2023-02-10T12:56:59;96023.28;;;15.91;22.32
7480;BME280;3781;42.272;22.658;2023-02-10T12:59:34;96026.50;;;15.44;22.35
7480;BME280;3781;42.272;22.658;2023-02-10T13:02:05;96031.59;;;14.72;23.11
7480;BME280;3781;42.272;22.658;2023-02-10T13:04:41;96033.63;;;15.93;22.74
7480;BME280;3781;42.272;22.658;2023-02-10T13:07:16;96044.44;;;16.48;21.54
7480;BME280;3781;42.272;22.658;2023-02-10T13:09:49;96025.78;;;18.40;19.78
7480;BME280;3781;42.272;22.658;2023-02-10T13:12:20;96040.28;;;18.17;20.07
7480;BME280;3781;42.272;22.658;2023-02-10T13:14:51;96012.00;;;18.91;19.16
7480;BME280;3781;42.272;22.658;2023-02-10T13:17:19;96034.78;;;19.52;18.96
7480;BME280;3781;42.272;22.658;2023-02-10T13:19:55;96031.03;;;18.67;20.14
7480;BME280;3781;42.272;22.658;2023-02-10T13:22:41;96011.72;;;18.94;19.98
7480;BME280;3781;42.272;22.658;2023-02-10T13:25:14;96034.81;;;19.17;19.20
7480;BME280;3781;42.272;22.658;2023-02-10T13:27:50;96037.16;;;18.31;19.75
7480;BME280;3781;42.272;22.658;2023-02-10T13:30:36;96023.47;;;16.48;20.84